Time;durP1;ratioP1;P1;durP2;ratioP2;P2;SDS_P1;SDS_P2;PMS_P1;PMS_P2;Temp;Humidity;BMP_temperature;BMP_pressure;BME280_temperature;BME280_humidity;BME280_pressure;Samples;Min_cycle;Max_cycle;Signal;HPM_P1;HPM_P2
2022/12/08 00:10:06;;;;;;;3.53;0.85;;;7.10;99.90;;;;;;9715575;30;20541;-61
2022/12/08 00:15:06;;;;;;;1.27;0.63;;;7.10;99.90;;;;;;9715332;30;20056;-61
2022/12/08 00:20:08;;;;;;;1.67;0.57;;;7.10;99.90;;;;;;9714921;30;20400;-61
2022/12/08 00:25:08;;;;;;;4.70;1.15;;;7.10;99.90;;;;;;9715351;30;20119;-60
2022/12/08 00:30:09;;;;;;;1.02;0.60;;;7.10;99.90;;;;;;9716562;30;20088;-60
2022/12/08 00:35:10;;;;;;;1.20;0.47;;;7.00;99.90;;;;;;9714251;30;20058;-60
2022/12/08 00:40:11;;;;;;;5.28;1.10;;;7.10;99.90;;;;;;9714575;30;20407;-61
2022/12/08 00:45:12;;;;;;;1.00;0.52;;;7.00;99.90;;;;;;9714388;30;20068;-60
2022/12/08 00:50:12;;;;;;;0.98;0.63;;;6.90;99.90;;;;;;9713812;30;20132;-61
2022/12/08 00:55:13;;;;;;;0.55;0.52;;;7.00;99.90;;;;;;9713774;30;20639;-61
2022/12/08 01:00:14;;;;;;;1.25;0.63;;;7.00;99.90;;;;;;9713946;30;20049;-60
2022/12/08 01:05:15;;;;;;;2.28;0.70;;;7.00;99.90;;;;;;9713724;30;20058;-60
2022/12/08 01:10:16;;;;;;;2.05;1.10;;;7.00;99.90;;;;;;9713820;30;20394;-61
2022/12/08 01:15:16;;;;;;;1.70;0.57;;;7.00;99.90;;;;;;9710406;30;20038;-62
2022/12/08 01:20:17;;;;;;;2.10;0.82;;;7.00;99.90;;;;;;9712506;30;20057;-61
2022/12/08 01:25:18;;;;;;;2.30;0.70;;;7.00;99.90;;;;;;9713870;30;20065;-61
2022/12/08 01:30:19;;;;;;;1.00;0.60;;;7.00;99.90;;;;;;9715423;30;20036;-61
2022/12/08 01:35:20;;;;;;;1.95;0.65;;;7.00;99.90;;;;;;9713398;30;20056;-61
2022/12/08 01:40:21;;;;;;;1.65;0.80;;;7.00;99.90;;;;;;9712845;30;20377;-60
2022/12/08 01:45:25;;;;;;;1.38;0.75;;;7.00;99.90;;;;;;9712329;30;20030;-60
2022/12/08 01:50:27;;;;;;;1.13;0.60;;;7.00;99.90;;;;;;9713905;30;20105;-62
2022/12/08 01:55:46;;;;;;;2.20;0.70;;;7.00;99.90;;;;;;9710706;30;20140;-61
2022/12/08 02:00:48;;;;;;;1.95;0.80;;;7.00;99.90;;;;;;9711791;30;20095;-61
2022/12/08 02:05:49;;;;;;;1.90;0.70;;;7.00;99.90;;;;;;9710809;30;20183;-60
2022/12/08 02:10:51;;;;;;;1.10;0.50;;;7.00;99.90;;;;;;9711954;30;20042;-61
2022/12/08 02:16:06;;;;;;;1.75;0.80;;;7.00;99.90;;;;;;9711295;30;20049;-60
2022/12/08 02:21:14;;;;;;;2.97;0.77;;;7.00;99.90;;;;;;9710797;30;20583;-62
2022/12/08 02:26:39;;;;;;;2.50;0.90;;;7.00;99.90;;;;;;9710827;30;20037;-61
2022/12/08 02:31:57;;;;;;;3.53;1.00;;;7.00;99.90;;;;;;9711123;30;20112;-60
2022/12/08 02:37:06;;;;;;;2.55;0.90;;;7.00;99.90;;;;;;9709208;30;20045;-61
2022/12/08 02:42:16;;;;;;;3.58;1.10;;;7.00;99.90;;;;;;9708115;30;20293;-60
2022/12/08 02:47:17;;;;;;;;;;;7.00;99.90;;;;;;9711296;30;20083;-61
2022/12/08 02:52:18;;;;;;;1.65;0.80;;;7.00;99.90;;;;;;9708436;30;20500;-60
2022/12/08 02:57:34;;;;;;;1.85;0.90;;;7.00;99.90;;;;;;9694329;30;20088;-61
2022/12/08 03:03:01;;;;;;;3.70;0.88;;;7.00;99.90;;;;;;9707898;30;20095;-60
2022/12/08 03:08:15;;;;;;;1.55;0.98;;;7.00;99.90;;;;;;9708682;30;20069;-60
2022/12/08 03:13:20;;;;;;;2.05;0.90;;;7.00;99.90;;;;;;9708337;30;20046;-60
2022/12/08 03:18:25;;;;;;;1.13;0.80;;;7.00;99.90;;;;;;9709486;30;20096;-61
2022/12/08 03:23:26;;;;;;;1.88;0.82;;;7.00;99.90;;;;;;9708240;30;20481;-60
2022/12/08 03:28:27;;;;;;;1.25;1.00;;;7.00;99.90;;;;;;9709852;30;20041;-60
2022/12/08 03:33:32;;;;;;;1.17;0.88;;;7.00;99.90;;;;;;9765327;24;20050;-61
2022/12/08 03:38:42;;;;;;;0.85;0.68;;;7.20;99.90;;;;;;9709674;30;20092;-62
2022/12/08 03:43:43;;;;;;;;;;;7.00;99.90;;;;;;9709973;30;20041;-60
2022/12/08 03:48:43;;;;;;;1.15;0.80;;;7.00;99.90;;;;;;9709585;30;19972;-60
2022/12/08 03:53:45;;;;;;;2.50;0.95;;;7.10;99.90;;;;;;9708730;30;20038;-59
2022/12/08 03:58:45;;;;;;;4.20;0.90;;;7.00;99.90;;;;;;9708434;30;20065;-60
2022/12/08 04:03:46;;;;;;;2.05;0.73;;;7.00;99.90;;;;;;9708427;30;20125;-60
2022/12/08 04:08:47;;;;;;;1.08;0.82;;;7.10;99.90;;;;;;9708927;30;20088;-60
2022/12/08 04:13:49;;;;;;;1.92;0.70;;;7.00;99.90;;;;;;9708574;30;20042;-60
2022/12/08 04:18:50;;;;;;;1.70;0.60;;;7.00;99.90;;;;;;9708420;30;20030;-60
2022/12/08 04:23:51;;;;;;;2.40;0.80;;;7.00;99.90;;;;;;9709014;30;20033;-60
2022/12/08 04:28:52;;;;;;;1.20;0.63;;;7.00;99.90;;;;;;9708223;30;20105;-60
2022/12/08 04:33:53;;;;;;;1.98;0.57;;;7.00;99.90;;;;;;9706683;30;20046;-60
2022/12/08 04:38:54;;;;;;;0.70;0.50;;;7.00;99.90;;;;;;9706629;30;20358;-60
2022/12/08 04:43:54;;;;;;;1.35;0.60;;;7.00;99.90;;;;;;9710215;30;20037;-61
2022/12/08 04:48:55;;;;;;;1.23;0.60;;;7.00;99.90;;;;;;9715430;30;21002;-60
2022/12/08 04:53:56;;;;;;;1.27;0.43;;;7.10;99.90;;;;;;9714320;30;20398;-60
2022/12/08 04:58:56;;;;;;;1.02;0.60;;;7.20;99.90;;;;;;9714037;30;20404;-60
2022/12/08 05:03:57;;;;;;;2.28;0.60;;;7.10;99.90;;;;;;9713996;30;20075;-60
2022/12/08 05:08:58;;;;;;;0.80;0.50;;;7.00;99.90;;;;;;9713777;30;20036;-61
2022/12/08 05:13:59;;;;;;;0.88;0.55;;;7.00;99.90;;;;;;9714202;30;20068;-60
2022/12/08 05:18:59;;;;;;;0.75;0.40;;;7.00;99.90;;;;;;9713270;30;20416;-60
2022/12/08 05:24:00;;;;;;;1.27;0.65;;;7.00;99.90;;;;;;9713105;30;20030;-60
2022/12/08 05:29:01;;;;;;;2.70;0.40;;;7.00;99.90;;;;;;9713106;30;20516;-60
2022/12/08 05:34:02;;;;;;;1.25;0.45;;;7.10;99.90;;;;;;9713322;30;20045;-60
2022/12/08 05:39:02;;;;;;;1.67;0.40;;;7.00;99.90;;;;;;9712811;30;20504;-60
2022/12/08 05:44:04;;;;;;;0.93;0.40;;;7.00;99.90;;;;;;9712291;30;20037;-60
2022/12/08 05:49:04;;;;;;;0.75;0.50;;;7.00;99.90;;;;;;9713697;30;20034;-60
2022/12/08 05:54:05;;;;;;;1.75;0.30;;;7.00;99.90;;;;;;9711313;30;20064;-61
2022/12/08 05:59:06;;;;;;;1.10;0.40;;;7.00;99.90;;;;;;9712484;30;20337;-60
2022/12/08 06:04:08;;;;;;;1.02;0.43;;;7.00;99.90;;;;;;9712499;30;20041;-60
2022/12/08 06:09:09;;;;;;;1.77;0.30;;;7.00;99.90;;;;;;9709690;30;20033;-60
2022/12/08 06:14:11;;;;;;;0.50;0.30;;;7.00;99.90;;;;;;9710108;30;20047;-61
2022/12/08 06:19:12;;;;;;;0.55;0.20;;;7.00;99.90;;;;;;9710902;30;20038;-60
2022/12/08 06:24:13;;;;;;;0.88;0.20;;;6.90;99.90;;;;;;9711147;30;20040;-60
2022/12/08 06:29:14;;;;;;;0.90;0.30;;;6.90;99.90;;;;;;9707774;30;20029;-61
2022/12/08 06:34:14;;;;;;;1.02;0.20;;;6.90;99.90;;;;;;9712655;30;20053;-60
2022/12/08 06:39:15;;;;;;;1.75;0.30;;;7.00;99.90;;;;;;9708452;24;20656;-61
2022/12/08 06:44:16;;;;;;;0.70;0.40;;;6.90;99.90;;;;;;9694125;30;20116;-60
2022/12/08 06:49:17;;;;;;;0.57;0.17;;;6.90;99.90;;;;;;9694742;30;20523;-59
2022/12/08 06:54:17;;;;;;;0.70;0.20;;;6.90;99.90;;;;;;9694246;30;20655;-61
2022/12/08 06:59:18;;;;;;;0.47;0.20;;;6.90;99.90;;;;;;9695876;30;20042;-60
2022/12/08 07:04:19;;;;;;;1.23;0.40;;;6.90;99.90;;;;;;9677467;30;20103;-64
2022/12/08 07:09:20;;;;;;;1.10;0.20;;;6.90;99.90;;;;;;9682316;30;20029;-60
2022/12/08 07:14:23;;;;;;;0.85;0.32;;;6.90;99.90;;;;;;9684384;30;20042;-62
2022/12/08 07:19:24;;;;;;;1.83;0.30;;;6.90;99.90;;;;;;9680639;30;20032;-60
2022/12/08 07:24:25;;;;;;;1.02;0.20;;;7.00;99.90;;;;;;9683636;30;20049;-61
2022/12/08 07:29:25;;;;;;;0.60;0.20;;;7.00;99.90;;;;;;9674351;30;20026;-60
2022/12/08 07:34:26;;;;;;;1.38;0.40;;;7.10;99.90;;;;;;9681711;30;20072;-60
2022/12/08 07:39:27;;;;;;;0.70;0.30;;;7.00;99.90;;;;;;9684052;30;20053;-60
2022/12/08 07:44:28;;;;;;;0.20;0.20;;;7.00;99.90;;;;;;9676031;30;20065;-60
2022/12/08 07:49:29;;;;;;;0.88;0.30;;;8.40;99.90;;;;;;9693254;30;20109;-60
2022/12/08 07:54:29;;;;;;;2.35;0.30;;;7.00;99.90;;;;;;9690845;30;20089;-63
2022/12/08 07:59:30;;;;;;;1.10;0.32;;;7.00;99.90;;;;;;9692170;30;20386;-62
2022/12/08 08:04:31;;;;;;;0.90;0.30;;;7.00;99.90;;;;;;9680393;30;20124;-61
2022/12/08 08:09:32;;;;;;;0.35;0.20;;;6.90;99.90;;;;;;9683707;30;20542;-62
2022/12/08 08:14:33;;;;;;;0.70;0.30;;;6.90;99.90;;;;;;9675889;30;20050;-59
2022/12/08 08:19:34;;;;;;;0.75;0.25;;;7.40;99.90;;;;;;9615181;30;20038;-60
2022/12/08 08:24:35;;;;;;;0.50;0.17;;;6.90;99.90;;;;;;9633201;30;20442;-61
2022/12/08 08:29:35;;;;;;;0.95;0.30;;;6.90;99.90;;;;;;9607770;30;20042;-61
2022/12/08 08:34:37;;;;;;;0.90;0.35;;;6.90;99.90;;;;;;9588890;30;20237;-61
2022/12/08 08:39:38;;;;;;;0.85;0.30;;;6.90;99.90;;;;;;9596871;30;20054;-66
2022/12/08 08:44:39;;;;;;;0.70;0.30;;;6.90;99.90;;;;;;9596992;30;20381;-61
2022/12/08 08:49:40;;;;;;;0.88;0.38;;;7.00;99.90;;;;;;9597484;30;20511;-61
2022/12/08 08:54:40;;;;;;;1.95;0.40;;;6.90;99.90;;;;;;9604441;30;20349;-61
2022/12/08 08:59:41;;;;;;;1.20;0.40;;;6.90;99.90;;;;;;9613216;30;20477;-62
2022/12/08 09:04:42;;;;;;;1.63;0.40;;;7.00;99.90;;;;;;9609099;30;20141;-61
2022/12/08 09:09:43;;;;;;;1.38;0.60;;;7.00;99.90;;;;;;9600482;30;20037;-61
2022/12/08 09:14:44;;;;;;;2.70;0.90;;;7.00;99.90;;;;;;9597372;30;20160;-60
2022/12/08 09:19:45;;;;;;;5.05;1.00;;;7.00;99.90;;;;;;9613585;30;20222;-61
2022/12/08 09:24:46;;;;;;;3.88;0.93;;;7.00;99.90;;;;;;9605860;30;20539;-62
2022/12/08 09:29:47;;;;;;;1.52;0.70;;;7.10;99.90;;;;;;9615122;30;20593;-61
2022/12/08 09:34:47;;;;;;;5.00;0.90;;;7.10;99.90;;;;;;9626098;30;20053;-62
2022/12/08 09:39:48;;;;;;;6.65;0.98;;;7.10;99.90;;;;;;9617867;30;20120;-61
2022/12/08 09:45:02;;;;;;;4.00;0.82;;;7.10;99.90;;;;;;9620291;30;20044;-62
2022/12/08 09:50:05;;;;;;;1.75;0.68;;;7.10;99.90;;;;;;9618997;30;20041;-61
2022/12/08 09:55:23;;;;;;;1.52;0.65;;;7.10;99.90;;;;;;9629874;30;20056;-65
2022/12/08 10:00:24;;;;;;;1.58;0.80;;;7.10;99.90;;;;;;9616846;30;20134;-63
2022/12/08 10:05:27;;;;;;;2.13;0.80;;;7.10;99.90;;;;;;9611476;30;20779;-62
2022/12/08 10:10:39;;;;;;;2.78;0.65;;;7.10;99.90;;;;;;9611378;30;20033;-62
2022/12/08 10:15:49;;;;;;;1.05;0.60;;;7.10;99.90;;;;;;9619245;30;20454;-62
2022/12/08 10:20:52;;;;;;;2.75;0.93;;;6.80;99.90;;;;;;9611480;30;20386;-63
2022/12/08 10:26:14;;;;;;;1.77;0.80;;;7.10;99.90;;;;;;9626049;30;20092;-62
2022/12/08 10:31:21;;;;;;;1.05;0.40;;;7.10;99.90;;;;;;9624985;30;20614;-62
2022/12/08 10:36:26;;;;;;;3.65;0.60;;;7.10;99.90;;;;;;9618066;30;20053;-63
2022/12/08 10:41:27;;;;;;;1.95;0.57;;;7.10;99.90;;;;;;9615262;30;20025;-63
2022/12/08 10:46:28;;;;;;;1.38;0.43;;;7.10;99.90;;;;;;9601084;30;20067;-63
2022/12/08 10:51:39;;;;;;;0.82;0.60;;;7.10;99.90;;;;;;9614832;30;20048;-64
2022/12/08 10:56:53;;;;;;;1.45;0.50;;;7.10;99.90;;;;;;9619467;30;20053;-63
2022/12/08 11:01:55;;;;;;;0.93;0.50;;;7.10;99.90;;;;;;9613634;30;20822;-64
2022/12/08 11:06:56;;;;;;;1.25;0.60;;;7.10;99.90;;;;;;9625046;30;20042;-65
2022/12/08 11:12:12;;;;;;;1.65;0.38;;;7.10;99.90;;;;;;9617411;30;20034;-62
2022/12/08 11:17:21;;;;;;;1.30;0.60;;;7.10;99.90;;;;;;9619166;30;20064;-62
2022/12/08 11:22:31;;;;;;;1.08;0.60;;;7.10;99.90;;;;;;9615336;30;20662;-63
2022/12/08 11:27:38;;;;;;;0.98;0.60;;;7.10;99.90;;;;;;9617409;30;20579;-62
2022/12/08 11:32:43;;;;;;;1.67;0.60;;;7.20;99.90;;;;;;9610283;30;20151;-62
2022/12/08 11:37:44;;;;;;;2.78;0.70;;;7.20;99.90;;;;;;9611229;30;20057;-62
2022/12/08 11:43:10;;;;;;;1.80;0.80;;;7.20;99.90;;;;;;9607822;30;20496;-63
2022/12/08 11:48:30;;;;;;;1.17;0.60;;;7.20;99.90;;;;;;9607797;30;20054;-63
2022/12/08 11:53:58;;;;;;;1.55;0.60;;;7.20;99.90;;;;;;9622777;30;20573;-63
2022/12/08 11:59:33;;;;;;;1.10;0.70;;;7.20;99.90;;;;;;9617284;30;20050;-63
2022/12/08 12:04:55;;;;;;;1.23;0.75;;;7.30;99.90;;;;;;9598954;30;20074;-65
2022/12/08 12:10:07;;;;;;;1.23;0.68;;;7.30;99.90;;;;;;9630501;30;20587;-64
2022/12/08 12:15:14;;;;;;;1.73;0.90;;;7.40;99.90;;;;;;9614697;30;20038;-63
2022/12/08 12:20:23;;;;;;;1.95;0.70;;;7.40;99.90;;;;;;9619049;30;20038;-63
2022/12/08 12:25:25;;;;;;;2.72;0.82;;;8.00;99.90;;;;;;9623856;30;20388;-62
2022/12/08 12:30:31;;;;;;;1.10;0.60;;;7.40;99.90;;;;;;9626015;30;20044;-63
2022/12/08 12:35:40;;;;;;;2.05;0.85;;;7.50;99.90;;;;;;9627944;30;20483;-62
2022/12/08 12:40:43;;;;;;;1.27;0.50;;;7.60;99.90;;;;;;9622518;30;20325;-62
2022/12/08 12:45:44;;;;;;;0.90;0.52;;;7.80;99.90;;;;;;9616245;30;20590;-62
2022/12/08 12:50:49;;;;;;;3.58;0.88;;;7.40;99.90;;;;;;9612038;30;20046;-61
2022/12/08 12:55:58;;;;;;;2.40;0.90;;;7.50;99.90;;;;;;9619815;30;20077;-62
2022/12/08 13:01:11;;;;;;;;;;;7.50;99.90;;;;;;9659662;24;20559;-61
2022/12/08 13:06:25;;;;;;;2.08;1.33;;;7.50;99.90;;;;;;9625442;30;20279;-66
2022/12/08 13:11:26;;;;;;;3.92;1.20;;;7.60;99.90;;;;;;9616645;30;20834;-66
2022/12/08 13:16:31;;;;;;;1.70;1.05;;;7.90;99.90;;;;;;9611136;30;20606;-64
2022/12/08 13:21:35;;;;;;;3.15;0.77;;;7.40;99.90;;;;;;9620175;30;20320;-62
2022/12/08 13:27:05;;;;;;;2.58;1.30;;;7.40;99.90;;;;;;9619125;30;20116;-60
2022/12/08 13:32:06;;;;;;;2.15;1.10;;;7.50;99.90;;;;;;9607511;30;20456;-61
2022/12/08 13:37:09;;;;;;;3.90;1.15;;;7.50;99.90;;;;;;9616687;30;20080;-62
2022/12/08 13:42:25;;;;;;;1.77;0.90;;;7.60;99.90;;;;;;9619005;30;20086;-62
2022/12/08 13:47:34;;;;;;;2.47;1.13;;;7.60;99.90;;;;;;9595685;30;20358;-62
2022/12/08 13:52:45;;;;;;;20.80;1.80;;;7.60;99.90;;;;;;9612453;30;20125;-61
2022/12/08 13:57:49;;;;;;;3.40;0.90;;;7.50;99.90;;;;;;9611731;30;20066;-62
2022/12/08 14:02:59;;;;;;;2.75;0.93;;;7.50;99.90;;;;;;9614757;24;20406;-62
2022/12/08 14:08:00;;;;;;;3.67;1.45;;;7.50;99.90;;;;;;9547038;30;20112;-62
2022/12/08 14:18:01;;;;;;;1.03;0.93;;;7.50;99.90;;;;;;9721217;25;20066;-63
2022/12/08 14:23:07;;;;;;;3.03;1.58;;;7.50;99.90;;;;;;9621165;30;20322;-62
2022/12/08 14:28:09;;;;;;;5.85;1.10;;;7.50;99.90;;;;;;9619999;30;20038;-62
2022/12/08 14:33:16;;;;;;;2.38;1.00;;;7.60;99.90;;;;;;9620165;30;20073;-61
2022/12/08 14:38:19;;;;;;;1.92;1.00;;;7.60;99.90;;;;;;9634545;25;20065;-63
2022/12/08 14:43:26;;;;;;;2.67;1.08;;;7.60;99.90;;;;;;9628921;30;20136;-62
2022/12/08 14:48:32;;;;;;;3.67;1.35;;;7.60;99.90;;;;;;9614149;30;20145;-63
2022/12/08 14:53:42;;;;;;;2.35;1.10;;;7.90;99.90;;;;;;9622834;30;20423;-63
2022/12/08 14:58:43;;;;;;;1.17;0.90;;;7.50;99.90;;;;;;9629656;30;20037;-64
2022/12/08 15:03:44;;;;;;;1.85;1.20;;;7.50;99.90;;;;;;9628631;30;20029;-63
2022/12/08 15:08:59;;;;;;;1.80;0.73;;;7.50;99.90;;;;;;9635492;30;20034;-64
2022/12/08 15:14:01;;;;;;;4.15;1.27;;;7.50;99.90;;;;;;9625261;30;20049;-63
2022/12/08 15:19:11;;;;;;;3.83;0.90;;;7.50;99.90;;;;;;9631821;30;20044;-63
2022/12/08 15:24:13;;;;;;;2.35;0.98;;;7.50;99.90;;;;;;9636205;30;20069;-62
2022/12/08 15:29:23;;;;;;;1.65;1.02;;;7.50;99.90;;;;;;9645303;30;20026;-63
2022/12/08 15:34:24;;;;;;;2.65;0.95;;;7.50;99.90;;;;;;9642914;30;20029;-63
2022/12/08 15:39:37;;;;;;;13.15;1.98;;;7.40;99.90;;;;;;9632937;30;20096;-63
2022/12/08 15:44:38;;;;;;;9.65;1.40;;;7.40;99.90;;;;;;9666054;25;20428;-61
2022/12/08 15:49:38;;;;;;;6.72;2.17;;;8.00;99.90;;;;;;9631458;30;20495;-63
2022/12/08 15:54:39;;;;;;;22.77;2.08;;;7.40;99.90;;;;;;9624823;30;20042;-67
2022/12/08 15:59:40;;;;;;;5.07;1.40;;;7.50;99.90;;;;;;9655544;30;20085;-63
2022/12/08 16:04:41;;;;;;;5.75;1.20;;;7.40;99.90;;;;;;9689236;30;20117;-63
2022/12/08 16:09:42;;;;;;;15.40;2.20;;;7.50;99.90;;;;;;9702037;30;20041;-63
2022/12/08 16:14:43;;;;;;;2.67;1.00;;;7.30;99.90;;;;;;9691037;30;20040;-63
2022/12/08 16:19:44;;;;;;;2.80;1.33;;;7.30;99.90;;;;;;9704597;30;20038;-63
2022/12/08 16:24:45;;;;;;;6.90;1.60;;;7.30;99.90;;;;;;9707363;30;20122;-63
2022/12/08 16:29:47;;;;;;;4.25;1.48;;;7.30;99.90;;;;;;9704881;30;20248;-63
2022/12/08 16:34:48;;;;;;;6.50;1.60;;;7.30;99.90;;;;;;9704763;30;20042;-63
2022/12/08 16:39:50;;;;;;;9.63;1.67;;;7.20;99.90;;;;;;9693793;30;20113;-64
2022/12/08 16:44:51;;;;;;;2.25;1.45;;;7.60;99.90;;;;;;9708649;30;20049;-64
2022/12/08 16:49:52;;;;;;;4.15;1.60;;;7.20;99.90;;;;;;9710516;30;20030;-64
2022/12/08 16:54:53;;;;;;;2.45;1.50;;;7.10;99.90;;;;;;9694932;30;20056;-65
2022/12/08 16:59:54;;;;;;;2.03;1.50;;;7.20;99.90;;;;;;9686919;30;20045;-65
2022/12/08 17:04:55;;;;;;;3.35;1.95;;;7.00;99.90;;;;;;9696950;30;20408;-64
2022/12/08 17:09:56;;;;;;;4.03;2.20;;;7.00;99.90;;;;;;9707579;30;20040;-64
2022/12/08 17:15:00;;;;;;;7.03;2.10;;;7.00;99.90;;;;;;9708598;30;20089;-65
2022/12/08 17:20:04;;;;;;;3.83;1.92;;;7.90;99.90;;;;;;9709494;30;20044;-63
2022/12/08 17:25:05;;;;;;;4.32;2.30;;;7.00;99.90;;;;;;9712205;30;20393;-62
2022/12/08 17:30:08;;;;;;;3.80;2.63;;;7.00;99.90;;;;;;9712185;30;20038;-62
2022/12/08 17:35:09;;;;;;;4.05;2.53;;;7.00;99.90;;;;;;9712871;30;20049;-62
2022/12/08 17:40:10;;;;;;;4.20;2.30;;;7.00;99.90;;;;;;9711125;30;20040;-62
2022/12/08 17:45:11;;;;;;;4.30;2.20;;;7.10;99.90;;;;;;9708835;30;20084;-63
2022/12/08 17:50:12;;;;;;;4.25;2.53;;;7.10;99.90;;;;;;9709658;30;20044;-62
2022/12/08 17:55:13;;;;;;;5.65;2.15;;;7.10;99.90;;;;;;9710628;30;20053;-62
2022/12/08 18:00:14;;;;;;;3.13;2.10;;;7.10;99.90;;;;;;9708768;30;20038;-62
2022/12/08 18:05:15;;;;;;;4.30;2.10;;;7.10;99.90;;;;;;9708540;30;20034;-63
2022/12/08 18:10:16;;;;;;;4.28;2.28;;;7.10;99.90;;;;;;9694876;30;20044;-62
2022/12/08 18:15:19;;;;;;;5.70;2.72;;;7.20;99.90;;;;;;9698585;30;20061;-62
2022/12/08 18:20:20;;;;;;;4.28;2.88;;;7.20;99.90;;;;;;9708429;30;20045;-63
2022/12/08 18:25:20;;;;;;;5.22;2.90;;;7.20;99.90;;;;;;9710529;30;20103;-63
2022/12/08 18:30:21;;;;;;;5.03;2.97;;;7.10;99.90;;;;;;9709275;30;20033;-67
2022/12/08 18:35:22;;;;;;;3.65;2.45;;;6.70;99.90;;;;;;9709321;30;20046;-67
2022/12/08 18:40:23;;;;;;;4.30;2.53;;;7.10;99.90;;;;;;9709070;30;21414;-64
2022/12/08 18:45:23;;;;;;;5.13;3.20;;;7.10;99.90;;;;;;9709435;30;20271;-63
2022/12/08 18:50:24;;;;;;;4.13;2.63;;;7.10;99.90;;;;;;9705012;30;20038;-63
2022/12/08 18:55:25;;;;;;;5.22;2.85;;;7.10;99.90;;;;;;9702255;30;20519;-63
2022/12/08 19:00:26;;;;;;;4.97;3.15;;;7.10;99.90;;;;;;9694858;30;20042;-63
2022/12/08 19:05:27;;;;;;;4.90;2.95;;;7.10;99.90;;;;;;9703961;30;20416;-67
2022/12/08 19:10:28;;;;;;;4.78;2.80;;;7.10;99.90;;;;;;9705225;30;20044;-66
2022/12/08 19:15:29;;;;;;;5.25;3.25;;;7.40;99.90;;;;;;9702474;30;20333;-67
2022/12/08 19:20:30;;;;;;;5.45;2.90;;;7.10;99.90;;;;;;9705331;30;20052;-69
2022/12/08 19:25:31;;;;;;;6.65;3.33;;;7.10;99.90;;;;;;9705201;30;20382;-63
2022/12/08 19:30:32;;;;;;;6.72;3.75;;;7.10;99.90;;;;;;9704420;30;20085;-64
2022/12/08 19:35:33;;;;;;;6.28;3.50;;;7.10;99.90;;;;;;9703545;30;20063;-64
2022/12/08 19:45:53;;;;;;;6.72;3.47;;;7.30;99.90;;;;;;9702665;30;20057;-67
2022/12/08 19:50:53;;;;;;;9.73;4.03;;;7.10;99.90;;;;;;9702290;30;20034;-69
2022/12/08 19:55:54;;;;;;;9.63;4.43;;;7.10;99.90;;;;;;9701074;30;20041;-66
2022/12/08 20:00:55;;;;;;;7.45;3.60;;;7.10;99.90;;;;;;9705340;30;20040;-64
2022/12/08 20:05:56;;;;;;;8.88;4.32;;;7.10;99.90;;;;;;9705305;30;20080;-62
2022/12/08 20:10:57;;;;;;;8.52;4.43;;;7.30;99.90;;;;;;9701984;30;20064;-63
2022/12/08 20:15:58;;;;;;;7.90;4.10;;;7.10;99.90;;;;;;9706421;30;20042;-65
2022/12/08 20:20:59;;;;;;;7.30;4.10;;;7.00;99.90;;;;;;9705174;30;20038;-64
2022/12/08 20:26:06;;;;;;;8.15;4.68;;;7.00;99.90;;;;;;9706612;30;20563;-64
2022/12/08 20:31:07;;;;;;;6.97;3.92;;;7.00;99.90;;;;;;9704234;30;20481;-67
2022/12/08 20:36:17;;;;;;;8.63;4.00;;;7.00;99.90;;;;;;9707799;30;20045;-65
2022/12/08 20:41:19;;;;;;;8.65;4.75;;;7.00;99.90;;;;;;9703443;30;20029;-62
2022/12/08 20:46:20;;;;;;;8.85;4.03;;;6.50;99.90;;;;;;9709372;30;20055;-68
2022/12/08 20:51:21;;;;;;;8.25;4.43;;;7.00;99.90;;;;;;9707426;30;20038;-68
2022/12/08 20:56:22;;;;;;;6.70;4.15;;;7.00;99.90;;;;;;9700094;30;20242;-64
2022/12/08 21:01:24;;;;;;;10.00;4.80;;;7.00;99.90;;;;;;9701559;30;20841;-69
2022/12/08 21:06:26;;;;;;;9.07;5.13;;;7.00;99.90;;;;;;9700591;30;20022;-62
2022/12/08 21:11:27;;;;;;;9.48;4.90;;;7.00;99.90;;;;;;9701397;30;20069;-64
2022/12/08 21:16:28;;;;;;;8.45;4.53;;;7.10;99.90;;;;;;9692329;30;20132;-66
2022/12/08 21:21:28;;;;;;;8.70;4.63;;;7.10;99.90;;;;;;9701465;30;20455;-64
2022/12/08 21:26:29;;;;;;;8.73;5.13;;;7.50;99.90;;;;;;9700919;30;20045;-63
2022/12/08 21:31:34;;;;;;;9.70;4.80;;;7.10;99.90;;;;;;9709919;30;20468;-67
2022/12/08 21:36:35;;;;;;;7.88;4.53;;;7.40;99.90;;;;;;9705820;30;20164;-67
2022/12/08 21:46:55;;;;;;;9.00;4.35;;;7.10;99.90;;;;;;9713757;30;20033;-63
2022/12/08 21:51:56;;;;;;;10.90;4.93;;;7.70;99.90;;;;;;9716819;30;20029;-66
2022/12/08 21:56:57;;;;;;;8.10;4.95;;;7.10;99.90;;;;;;9712834;30;20059;-65
2022/12/08 22:01:57;;;;;;;7.88;4.55;;;7.10;99.90;;;;;;9715076;30;20030;-66
2022/12/08 22:06:58;;;;;;;9.73;4.47;;;7.00;99.90;;;;;;9714506;30;20033;-66
2022/12/08 22:11:59;;;;;;;8.93;4.82;;;7.00;99.90;;;;;;9718752;30;20508;-66
2022/12/08 22:16:59;;;;;;;9.55;5.03;;;7.50;99.90;;;;;;9713388;30;20057;-66
2022/12/08 22:22:00;;;;;;;9.40;4.70;;;7.00;99.90;;;;;;9716927;30;20412;-65
2022/12/08 22:27:01;;;;;;;10.48;4.97;;;7.00;99.90;;;;;;9711926;30;20120;-63
2022/12/08 22:32:02;;;;;;;9.40;4.63;;;7.10;99.90;;;;;;9706796;30;20026;-64
2022/12/08 22:37:02;;;;;;;13.52;5.50;;;7.10;99.90;;;;;;9704473;30;20407;-63
2022/12/08 22:42:03;;;;;;;10.40;5.13;;;7.00;99.90;;;;;;9708614;30;20049;-62
2022/12/08 22:47:07;;;;;;;9.63;5.35;;;7.00;99.80;;;;;;9705237;30;20099;-66
2022/12/08 22:52:07;;;;;;;13.30;5.72;;;7.00;99.80;;;;;;9709630;30;20022;-64
2022/12/08 22:57:08;;;;;;;8.18;4.90;;;7.00;99.80;;;;;;9711223;30;20166;-63
2022/12/08 23:02:09;;;;;;;10.05;4.85;;;7.00;99.80;;;;;;9710404;30;20552;-63
2022/12/08 23:07:10;;;;;;;9.25;5.45;;;7.00;99.80;;;;;;9708119;30;20033;-61
2022/12/08 23:12:11;;;;;;;10.73;5.35;;;7.00;99.80;;;;;;9706404;30;20036;-62
2022/12/08 23:17:11;;;;;;;11.23;5.22;;;7.00;99.80;;;;;;9707991;30;20243;-62
2022/12/08 23:22:12;;;;;;;10.43;5.00;;;7.00;99.80;;;;;;9708661;30;20037;-63
2022/12/08 23:27:13;;;;;;;9.55;4.95;;;7.10;99.80;;;;;;9709952;30;20030;-62
2022/12/08 23:32:14;;;;;;;10.35;5.47;;;7.00;99.80;;;;;;9710183;30;20045;-62
2022/12/08 23:37:14;;;;;;;9.82;4.95;;;7.00;99.80;;;;;;9706779;30;20531;-63
2022/12/08 23:42:15;;;;;;;10.18;4.97;;;7.00;99.70;;;;;;9709192;30;20052;-64
2022/12/08 23:47:16;;;;;;;12.35;5.75;;;7.10;99.80;;;;;;9713007;25;20072;-62
2022/12/08 23:52:16;;;;;;;12.18;5.80;;;7.00;99.70;;;;;;9738780;24;20050;-63
2022/12/08 23:57:17;;;;;;;11.45;4.95;;;7.10;99.80;;;;;;9705423;25;20066;-64
